Time;durP1;ratioP1;P1;durP2;ratioP2;P2;SDS_P1;SDS_P2;PMS_P1;PMS_P2;Temp;Humidity;BMP_temperature;BMP_pressure;BME280_temperature;BME280_humidity;BME280_pressure;Samples;Min_cycle;Max_cycle;Signal;HPM_P1;HPM_P2
2022/04/20 00:00:28;;;;;;;3.67;2.92;;;2.70;99.90;;;;;;5057905;28;20488;-87
2022/04/20 00:02:54;;;;;;;3.42;3.03;;;2.70;99.90;;;;;;5063870;28;20503;-86
2022/04/20 00:05:19;;;;;;;15.30;7.70;;;2.60;99.90;;;;;;5055023;28;20405;-87
2022/04/20 00:07:45;;;;;;;27.50;11.35;;;2.60;99.90;;;;;;5063507;28;20141;-86
2022/04/20 00:10:11;;;;;;;6.55;4.65;;;2.50;99.90;;;;;;5066425;28;20024;-86
2022/04/20 00:12:36;;;;;;;32.95;13.38;;;2.50;99.90;;;;;;5065648;28;20031;-85
2022/04/20 00:15:02;;;;;;;38.05;13.27;;;2.40;99.90;;;;;;5081382;28;20064;-86
2022/04/20 00:17:28;;;;;;;6.60;5.22;;;2.40;99.90;;;;;;5067550;28;20040;-86
2022/04/20 00:19:54;;;;;;;4.53;2.90;;;2.40;99.90;;;;;;5067083;28;20424;-86
2022/04/20 00:22:19;;;;;;;4.40;3.42;;;2.40;99.90;;;;;;5071914;28;20024;-86
2022/04/20 00:24:45;;;;;;;4.13;3.35;;;2.40;99.90;;;;;;5065580;28;20029;-86
2022/04/20 00:27:10;;;;;;;4.40;3.45;;;2.40;99.90;;;;;;5060722;28;20039;-86
2022/04/20 00:29:36;;;;;;;4.45;3.40;;;2.40;99.90;;;;;;5062765;28;20378;-87
2022/04/20 00:32:02;;;;;;;14.07;8.10;;;2.30;99.90;;;;;;5082343;28;20107;-86
2022/04/20 00:34:27;;;;;;;12.57;5.65;;;2.30;99.90;;;;;;5064812;28;20033;-86
2022/04/20 00:36:55;;;;;;;67.18;24.83;;;2.20;99.90;;;;;;5057182;28;20458;-86
2022/04/20 00:39:21;;;;;;;37.55;15.25;;;2.10;99.90;;;;;;5067319;28;20071;-86
2022/04/20 00:41:47;;;;;;;23.30;9.65;;;2.10;99.90;;;;;;5061984;28;20021;-87
2022/04/20 00:44:14;;;;;;;19.13;9.38;;;2.10;99.90;;;;;;5059631;28;20021;-86
2022/04/20 00:46:41;;;;;;;8.43;4.32;;;2.00;99.90;;;;;;5069018;28;20039;-87
2022/04/20 00:49:07;;;;;;;4.07;2.80;;;2.00;99.90;;;;;;5071601;28;20104;-86
2022/04/20 00:51:33;;;;;;;6.32;2.70;;;1.90;99.90;;;;;;5058504;28;20536;-85
2022/04/20 00:54:02;;;;;;;12.25;7.57;;;1.90;99.90;;;;;;5074944;28;20116;-85
2022/04/20 00:56:28;;;;;;;8.32;5.85;;;1.80;99.90;;;;;;5058934;28;20063;-87
2022/04/20 00:58:55;;;;;;;3.38;3.08;;;1.70;99.90;;;;;;5067714;28;20416;-86
2022/04/20 01:01:21;;;;;;;4.75;2.53;;;1.60;99.90;;;;;;5068750;28;20380;-86
2022/04/20 01:03:47;;;;;;;5.55;2.80;;;1.50;99.90;;;;;;5062328;28;20066;-86
2022/04/20 01:06:13;;;;;;;4.18;3.00;;;1.50;99.90;;;;;;5060347;28;20037;-87
2022/04/20 01:08:38;;;;;;;3.20;2.90;;;1.30;99.90;;;;;;5060964;28;20551;-86
2022/04/20 01:11:05;;;;;;;3.83;2.88;;;1.20;99.90;;;;;;5080935;28;20561;-85
2022/04/20 01:13:30;;;;;;;4.45;3.22;;;1.10;99.90;;;;;;5070722;28;20021;-87
2022/04/20 01:15:56;;;;;;;3.28;2.60;;;1.00;99.90;;;;;;5069126;28;20025;-86
2022/04/20 01:18:22;;;;;;;4.22;3.05;;;0.90;99.90;;;;;;5055704;28;20056;-86
2022/04/20 01:20:47;;;;;;;3.63;2.80;;;0.90;99.90;;;;;;5067815;28;20028;-86
2022/04/20 01:23:13;;;;;;;4.00;3.28;;;0.80;99.90;;;;;;5071132;28;20033;-86
2022/04/20 01:25:39;;;;;;;4.07;3.42;;;0.70;99.90;;;;;;5065215;28;20050;-86
2022/04/20 01:28:05;;;;;;;5.28;3.00;;;0.70;99.90;;;;;;5061120;28;20036;-86
2022/04/20 01:30:32;;;;;;;3.22;2.90;;;0.70;99.90;;;;;;5061028;28;20026;-86
2022/04/20 01:32:58;;;;;;;4.53;3.55;;;0.70;99.90;;;;;;5063692;28;20028;-86
2022/04/20 01:35:24;;;;;;;7.35;4.32;;;0.60;99.90;;;;;;5059129;28;20561;-87
2022/04/20 01:37:50;;;;;;;4.57;3.80;;;0.60;99.90;;;;;;5060197;28;20123;-86
2022/04/20 01:40:16;;;;;;;6.13;4.10;;;0.60;99.90;;;;;;5065711;28;20048;-86
2022/04/20 01:42:41;;;;;;;3.88;3.38;;;0.60;99.90;;;;;;5060302;28;20061;-86
2022/04/20 01:45:07;;;;;;;4.60;3.75;;;0.50;99.90;;;;;;5058673;28;20025;-87
2022/04/20 01:47:33;;;;;;;8.18;5.18;;;0.40;99.90;;;;;;5063040;28;20037;-85
2022/04/20 01:49:58;;;;;;;7.47;4.00;;;0.30;99.90;;;;;;5065919;28;20350;-85
2022/04/20 01:52:24;;;;;;;4.70;3.95;;;0.30;99.90;;;;;;5058735;28;20392;-86
2022/04/20 01:54:50;;;;;;;4.72;3.92;;;0.30;99.90;;;;;;5065547;28;20032;-85
2022/04/20 01:57:16;;;;;;;4.50;4.10;;;0.20;99.90;;;;;;5058320;28;20410;-86
2022/04/20 01:59:41;;;;;;;5.50;4.38;;;0.20;99.90;;;;;;5073915;28;20028;-85
2022/04/20 02:04:51;;;;;;;5.80;4.03;;;0.20;99.90;;;;;;5062025;28;20400;-85
2022/04/20 02:07:17;;;;;;;11.45;3.90;;;0.10;99.90;;;;;;5064250;28;20025;-86
2022/04/20 02:09:42;;;;;;;4.35;3.95;;;0.10;99.90;;;;;;5064621;28;20035;-85
2022/04/20 02:12:08;;;;;;;6.43;4.93;;;0.10;99.90;;;;;;5060561;28;20071;-86
2022/04/20 02:14:34;;;;;;;4.03;3.63;;;0.10;99.90;;;;;;5054552;28;20131;-85
2022/04/20 02:17:00;;;;;;;5.13;3.90;;;0.00;99.90;;;;;;5060951;28;20484;-85
2022/04/20 02:19:25;;;;;;;4.80;4.38;;;0.00;99.90;;;;;;5058175;28;20494;-85
2022/04/20 02:21:51;;;;;;;8.77;4.28;;;0.00;99.90;;;;;;5062966;28;20017;-86
2022/04/20 02:24:17;;;;;;;5.80;4.20;;;0.00;99.90;;;;;;5064115;28;20116;-86
2022/04/20 02:26:42;;;;;;;5.10;4.60;;;-0.10;99.90;;;;;;5058501;28;20036;-86
2022/04/20 02:29:08;;;;;;;12.98;4.15;;;-0.10;99.90;;;;;;5058264;28;20116;-85
2022/04/20 02:31:34;;;;;;;5.65;5.15;;;-0.10;99.90;;;;;;5073375;28;20033;-85
2022/04/20 02:34:00;;;;;;;6.13;4.38;;;-0.20;99.90;;;;;;5069611;28;20017;-85
2022/04/20 02:36:26;;;;;;;8.52;3.80;;;-0.20;99.90;;;;;;5049185;28;20463;-86
2022/04/20 02:38:52;;;;;;;3.97;3.35;;;-0.30;99.90;;;;;;5061932;28;20029;-85
2022/04/20 02:41:18;;;;;;;5.97;5.40;;;-0.40;99.90;;;;;;5063428;28;20166;-86
2022/04/20 02:43:44;;;;;;;5.60;4.53;;;-0.40;99.90;;;;;;5061728;28;20020;-85
2022/04/20 02:46:10;;;;;;;6.57;3.95;;;-0.50;99.90;;;;;;5056976;28;20086;-85
2022/04/20 02:48:36;;;;;;;4.25;3.83;;;-0.50;99.90;;;;;;5056449;28;20116;-85
2022/04/20 02:51:02;;;;;;;4.32;3.88;;;-0.50;99.90;;;;;;5079494;28;20468;-85
2022/04/20 02:53:27;;;;;;;6.75;4.45;;;-0.60;99.90;;;;;;5064936;28;20408;-86
2022/04/20 02:55:53;;;;;;;6.00;4.38;;;-0.60;99.90;;;;;;5058047;28;20029;-86
2022/04/20 02:58:18;;;;;;;5.25;4.75;;;-0.60;99.90;;;;;;5063153;28;20029;-85
2022/04/20 03:00:45;;;;;;;6.65;4.43;;;-0.60;99.90;;;;;;5055974;28;20039;-86
2022/04/20 03:03:12;;;;;;;9.05;5.15;;;-0.60;99.90;;;;;;5058979;28;20760;-85
2022/04/20 03:05:38;;;;;;;5.80;4.70;;;-0.60;99.90;;;;;;5063619;28;20055;-85
2022/04/20 03:08:04;;;;;;;5.68;4.45;;;-0.70;99.90;;;;;;5058769;28;20059;-84
2022/04/20 03:10:29;;;;;;;6.25;5.75;;;-0.70;99.90;;;;;;5056768;28;20040;-85
2022/04/20 03:12:55;;;;;;;7.40;4.50;;;-0.70;99.90;;;;;;5065747;28;20016;-85
2022/04/20 03:15:21;;;;;;;6.18;5.57;;;-0.80;99.90;;;;;;5052923;28;20024;-85
2022/04/20 03:17:46;;;;;;;28.50;15.25;;;-0.80;99.90;;;;;;5062592;28;20033;-86
2022/04/20 03:20:12;;;;;;;20.58;8.95;;;-0.90;99.90;;;;;;5059521;28;20913;-86
2022/04/20 03:22:38;;;;;;;11.27;7.45;;;-0.80;99.90;;;;;;5065327;28;20029;-85
2022/04/20 03:25:04;;;;;;;13.18;8.18;;;-0.90;99.90;;;;;;5065126;28;20029;-83
2022/04/20 03:27:30;;;;;;;7.32;4.18;;;-0.90;99.90;;;;;;5052855;28;20048;-85
2022/04/20 03:29:55;;;;;;;5.05;4.30;;;-1.00;99.90;;;;;;5067269;28;20480;-84
2022/04/20 03:32:21;;;;;;;5.53;4.97;;;-1.00;99.90;;;;;;5048174;28;20086;-86
2022/04/20 03:34:47;;;;;;;4.40;4.00;;;-1.10;99.90;;;;;;5056300;28;20614;-86
2022/04/20 03:37:13;;;;;;;5.78;4.22;;;-1.10;99.90;;;;;;5061287;28;20036;-86
2022/04/20 03:39:39;;;;;;;4.55;3.88;;;-1.20;99.90;;;;;;5060321;28;20056;-86
2022/04/20 03:42:06;;;;;;;6.72;5.30;;;-1.20;99.90;;;;;;5057606;28;20091;-85
2022/04/20 03:44:33;;;;;;;6.97;5.53;;;-1.20;99.90;;;;;;5067861;28;20025;-85
2022/04/20 03:46:59;;;;;;;6.97;4.57;;;-1.20;99.90;;;;;;5058440;28;20054;-84
2022/04/20 03:49:25;;;;;;;7.70;5.10;;;-1.20;99.90;;;;;;5060933;28;20025;-85
2022/04/20 03:51:51;;;;;;;7.45;5.07;;;-1.20;99.90;;;;;;5071408;28;20021;-86
2022/04/20 03:54:17;;;;;;;5.78;5.03;;;-1.20;99.90;;;;;;5057562;28;20553;-86
2022/04/20 03:59:27;;;;;;;8.00;4.78;;;-1.20;99.90;;;;;;5064386;28;20028;-88
2022/04/20 04:01:53;;;;;;;7.80;4.60;;;-1.10;99.90;;;;;;5057958;28;20025;-85
2022/04/20 04:04:19;;;;;;;6.15;4.97;;;-1.10;99.90;;;;;;5057940;28;20067;-85
2022/04/20 04:06:45;;;;;;;6.90;5.75;;;-1.10;99.90;;;;;;5060498;28;20024;-85
2022/04/20 04:09:11;;;;;;;6.93;4.93;;;-1.10;99.90;;;;;;5063343;28;20058;-86
2022/04/20 04:11:37;;;;;;;5.97;5.38;;;-1.20;99.90;;;;;;5062935;28;20511;-84
2022/04/20 04:14:02;;;;;;;8.45;5.65;;;-1.20;99.90;;;;;;5037275;28;20033;-84
2022/04/20 04:16:28;;;;;;;6.40;5.80;;;-1.10;99.90;;;;;;5057155;28;20028;-85
2022/04/20 04:18:53;;;;;;;11.40;4.65;;;-1.20;99.90;;;;;;5062250;28;20402;-85
2022/04/20 04:21:20;;;;;;;5.90;5.13;;;-1.20;99.90;;;;;;5058778;28;20039;-86
2022/04/20 04:23:47;;;;;;;5.40;4.90;;;-1.20;99.90;;;;;;5057542;28;20190;-86
2022/04/20 04:26:13;;;;;;;6.35;5.45;;;-1.30;99.90;;;;;;5056236;28;20037;-85
2022/04/20 04:28:40;;;;;;;6.20;5.63;;;-1.30;99.90;;;;;;5061769;28;20024;-85
2022/04/20 04:31:06;;;;;;;5.70;5.20;;;-1.40;99.90;;;;;;5061921;28;20104;-85
2022/04/20 04:33:34;;;;;;;9.43;5.28;;;-1.40;99.90;;;;;;5060769;28;20116;-86
2022/04/20 04:36:00;;;;;;;8.02;5.88;;;-1.40;99.90;;;;;;5059569;28;20033;-85
2022/04/20 04:38:26;;;;;;;6.57;5.85;;;-1.30;99.90;;;;;;5061213;28;20157;-87
2022/04/20 04:40:52;;;;;;;9.35;5.57;;;-1.30;99.90;;;;;;5059598;28;20515;-86
2022/04/20 04:43:18;;;;;;;9.80;6.18;;;-1.30;99.90;;;;;;5058858;28;20025;-86
2022/04/20 04:48:36;;;;;;;12.63;6.68;;;-1.10;99.90;;;;;;5061667;28;20408;-86
2022/04/20 04:51:07;;;;;;;5.68;5.18;;;-1.10;99.90;;;;;;5064162;28;20112;-86
2022/04/20 04:53:33;;;;;;;7.87;5.47;;;-1.00;99.90;;;;;;5063484;28;20071;-85
2022/04/20 04:55:58;;;;;;;5.93;4.50;;;-1.00;99.90;;;;;;5067862;28;20267;-87
2022/04/20 04:58:24;;;;;;;8.20;5.20;;;-0.90;99.90;;;;;;5064817;28;20546;-86
2022/04/20 05:00:50;;;;;;;6.28;5.60;;;-0.80;99.90;;;;;;5064385;28;20520;-85
2022/04/20 05:03:16;;;;;;;5.03;4.03;;;-0.60;99.90;;;;;;5053830;28;20492;-86
2022/04/20 05:05:43;;;;;;;4.55;3.85;;;0.00;99.90;;;;;;5066661;28;20032;-87
2022/04/20 05:08:09;;;;;;;3.78;2.75;;;0.80;99.90;;;;;;5060406;28;20400;-86
2022/04/20 05:10:35;;;;;;;3.13;2.65;;;2.10;99.90;;;;;;5073893;28;20024;-86
2022/04/20 05:13:01;;;;;;;4.10;2.65;;;3.10;99.90;;;;;;5060064;28;20031;-87
2022/04/20 05:15:27;;;;;;;3.60;1.88;;;4.30;99.90;;;;;;5063573;28;20028;-88
2022/04/20 05:17:53;;;;;;;3.83;2.25;;;5.50;99.90;;;;;;5061453;28;20044;-86
2022/04/20 05:20:19;;;;;;;3.15;2.53;;;6.50;99.90;;;;;;5064054;28;20032;-88
2022/04/20 05:22:46;;;;;;;3.80;2.00;;;7.60;99.90;;;;;;5059993;28;20048;-87
2022/04/20 05:25:12;;;;;;;3.28;2.08;;;8.30;99.90;;;;;;5052874;28;20060;-88
2022/04/20 05:27:37;;;;;;;3.78;1.77;;;9.00;99.90;;;;;;5061486;28;20029;-87
2022/04/20 05:30:08;;;;;;;2.83;2.45;;;9.70;99.90;;;;;;5050466;28;20033;-88
2022/04/20 05:32:34;;;;;;;2.60;1.83;;;10.50;99.90;;;;;;5059048;28;20531;-88
2022/04/20 05:35:01;;;;;;;2.78;2.22;;;11.40;99.90;;;;;;5064202;28;20036;-88
2022/04/20 05:42:55;;;;;;;5.22;2.28;;;11.30;72.90;;;;;;5058325;28;20515;-86
2022/04/20 05:45:20;;;;;;;3.38;2.20;;;10.90;74.90;;;;;;5055465;28;20038;-87
2022/04/20 05:47:46;;;;;;;4.63;2.75;;;10.60;81.30;;;;;;5059711;28;20060;-88
2022/04/20 05:50:12;;;;;;;3.85;2.00;;;11.00;78.50;;;;;;5062593;28;20059;-88
2022/04/20 05:52:38;;;;;;;2.70;2.28;;;11.40;75.80;;;;;;5057045;28;20087;-88
2022/04/20 05:55:04;;;;;;;2.97;2.40;;;12.10;70.30;;;;;;5061893;28;20677;-87
2022/04/20 05:57:30;;;;;;;8.15;2.50;;;12.40;65.70;;;;;;5062877;28;20523;-88
2022/04/20 05:59:56;;;;;;;2.72;2.30;;;12.00;66.70;;;;;;5063808;28;20028;-86
2022/04/20 06:02:22;;;;;;;4.90;2.30;;;12.00;68.40;;;;;;5052737;28;20391;-87
2022/04/20 06:04:47;;;;;;;2.60;2.40;;;12.10;69.20;;;;;;5057605;28;20029;-87
2022/04/20 06:07:13;;;;;;;2.80;2.10;;;12.60;68.20;;;;;;5055901;28;20468;-87
2022/04/20 06:09:39;;;;;;;2.53;2.33;;;13.20;64.20;;;;;;5056175;28;20037;-87
2022/04/20 06:12:07;;;;;;;4.10;2.28;;;13.80;60.30;;;;;;5056051;28;20033;-88
2022/04/20 06:14:33;;;;;;;3.58;2.85;;;14.20;58.70;;;;;;5056138;28;20036;-86
2022/04/20 06:16:59;;;;;;;3.25;2.17;;;14.50;57.10;;;;;;5056380;28;20500;-86
2022/04/20 06:19:24;;;;;;;3.72;2.40;;;14.40;57.20;;;;;;5058442;28;20024;-88
2022/04/20 06:21:50;;;;;;;3.47;2.33;;;14.20;56.90;;;;;;5061746;28;20021;-89
2022/04/20 06:24:15;;;;;;;3.35;2.65;;;14.30;57.70;;;;;;5055871;28;20083;-87
2022/04/20 06:26:41;;;;;;;3.10;2.75;;;14.50;57.10;;;;;;5064773;28;20107;-88
2022/04/20 06:29:07;;;;;;;3.28;2.45;;;14.60;56.60;;;;;;5059804;28;20033;-88
2022/04/20 06:31:33;;;;;;;5.68;2.70;;;14.70;55.90;;;;;;5059062;28;20100;-89
2022/04/20 06:33:59;;;;;;;4.90;3.20;;;15.60;55.00;;;;;;5063884;28;20079;-87
2022/04/20 06:36:26;;;;;;;3.72;2.50;;;16.10;53.50;;;;;;5061517;28;20100;-88
2022/04/20 06:38:52;;;;;;;6.75;2.67;;;16.60;51.50;;;;;;5063242;28;20573;-89
2022/04/20 06:41:18;;;;;;;3.28;2.55;;;16.80;50.90;;;;;;5063035;28;20028;-88
2022/04/20 06:43:44;;;;;;;3.85;2.88;;;17.10;51.70;;;;;;5060980;28;20025;-89
2022/04/20 06:46:10;;;;;;;3.13;2.53;;;17.90;49.80;;;;;;5060798;28;20035;-89
2022/04/20 06:48:35;;;;;;;3.20;2.28;;;18.10;49.50;;;;;;5059921;28;20111;-89
2022/04/20 06:51:02;;;;;;;5.57;2.20;;;18.40;48.00;;;;;;5074711;28;20074;-89
2022/04/20 06:59:16;;;;;;;2.78;2.58;;;19.70;46.20;;;;;;5028288;28;20075;-89
2022/04/20 07:01:42;;;;;;;2.35;2.15;;;20.30;45.30;;;;;;5050033;28;20041;-87
2022/04/20 07:04:07;;;;;;;4.03;2.50;;;20.80;44.00;;;;;;5054265;28;20569;-88
2022/04/20 07:06:33;;;;;;;3.13;2.30;;;21.30;42.90;;;;;;5054563;28;20033;-88
2022/04/20 07:08:59;;;;;;;4.65;2.80;;;21.50;41.70;;;;;;5057193;28;20037;-86
2022/04/20 07:11:28;;;;;;;2.90;2.58;;;21.50;41.20;;;;;;5058866;28;20029;-87
2022/04/20 07:13:57;;;;;;;2.80;2.60;;;21.30;42.20;;;;;;5056364;28;20036;-87
2022/04/20 07:16:23;;;;;;;3.05;2.75;;;21.20;41.50;;;;;;5051957;28;20109;-88
2022/04/20 07:18:48;;;;;;;4.75;3.17;;;21.50;41.40;;;;;;5060260;28;20048;-89
2022/04/20 07:21:14;;;;;;;3.65;2.80;;;21.90;40.80;;;;;;5050991;28;20092;-88
2022/04/20 07:23:40;;;;;;;8.43;3.15;;;22.20;40.10;;;;;;5055767;28;20033;-89
2022/04/20 07:26:05;;;;;;;4.35;3.47;;;22.70;40.10;;;;;;5059139;28;20029;-89
2022/04/20 07:28:31;;;;;;;6.60;2.95;;;22.90;40.20;;;;;;5060720;28;20502;-88
2022/04/20 07:30:57;;;;;;;4.18;3.35;;;23.00;39.70;;;;;;5056288;28;20025;-86
2022/04/20 07:33:24;;;;;;;5.93;3.35;;;23.60;39.00;;;;;;5057772;28;20055;-88
2022/04/20 07:35:50;;;;;;;3.63;3.33;;;23.60;38.20;;;;;;5054315;28;20056;-88
2022/04/20 07:38:16;;;;;;;3.67;2.90;;;23.20;38.90;;;;;;5058728;28;20499;-88
2022/04/20 07:40:41;;;;;;;4.97;3.38;;;23.20;38.80;;;;;;5055372;28;20480;-89
2022/04/20 07:43:07;;;;;;;6.07;2.95;;;23.50;38.80;;;;;;5060717;28;20025;-86
2022/04/20 07:45:34;;;;;;;4.75;3.03;;;23.70;38.40;;;;;;5057118;28;20025;-86
2022/04/20 07:47:59;;;;;;;5.57;3.30;;;24.50;37.50;;;;;;5065774;28;20033;-86
2022/04/20 07:50:25;;;;;;;3.22;2.92;;;24.80;37.60;;;;;;5055923;28;20056;-87
2022/04/20 07:52:59;;;;;;;3.75;3.17;;;25.10;35.90;;;;;;5057902;28;20033;-86
2022/04/20 07:55:29;;;;;;;3.10;2.80;;;25.40;36.00;;;;;;5063528;28;20071;-86
2022/04/20 07:57:57;;;;;;;4.80;2.80;;;25.40;34.30;;;;;;5062554;28;20116;-84
2022/04/20 08:00:23;;;;;;;2.75;2.55;;;25.80;35.20;;;;;;5057156;28;20033;-87
2022/04/20 08:02:50;;;;;;;3.58;2.88;;;26.10;33.20;;;;;;5060737;28;20025;-87
2022/04/20 08:05:19;;;;;;;7.55;3.03;;;26.00;32.10;;;;;;5061212;28;20040;-86
2022/04/20 08:07:45;;;;;;;2.90;2.70;;;26.20;32.50;;;;;;5063037;28;20078;-87
2022/04/20 08:10:12;;;;;;;2.55;2.33;;;26.40;30.90;;;;;;5059737;28;20046;-87
2022/04/20 08:12:44;;;;;;;2.92;2.70;;;26.70;31.80;;;;;;5060388;28;20545;-85
2022/04/20 08:15:11;;;;;;;3.08;2.42;;;27.20;32.80;;;;;;5062835;28;20071;-87
2022/04/20 08:17:37;;;;;;;2.63;2.38;;;27.10;31.30;;;;;;5059189;28;20032;-88
2022/04/20 08:20:12;;;;;;;29.92;4.03;;;26.70;30.20;;;;;;5051701;28;20069;-87
2022/04/20 08:22:44;;;;;;;2.63;2.42;;;26.60;32.60;;;;;;5054793;28;20053;-86
2022/04/20 08:25:11;;;;;;;3.20;2.67;;;27.00;31.60;;;;;;5053088;28;20032;-87
2022/04/20 08:27:38;;;;;;;3.58;2.58;;;27.60;31.10;;;;;;5071910;28;20033;-87
2022/04/20 08:30:07;;;;;;;3.38;2.67;;;27.60;31.20;;;;;;5061424;28;20105;-87
2022/04/20 08:32:33;;;;;;;5.53;2.90;;;27.70;32.00;;;;;;5060792;28;20515;-87
2022/04/20 08:34:59;;;;;;;3.50;2.83;;;28.40;31.20;;;;;;5060785;28;20049;-85
2022/04/20 08:37:25;;;;;;;3.08;2.30;;;28.50;29.90;;;;;;5059571;28;20037;-86
2022/04/20 08:39:50;;;;;;;3.30;3.03;;;28.10;30.30;;;;;;5061666;28;20050;-88
2022/04/20 08:42:19;;;;;;;3.53;2.28;;;28.20;31.20;;;;;;5070155;28;20039;-87
2022/04/20 08:44:48;;;;;;;3.47;2.78;;;28.10;29.00;;;;;;5055647;28;20041;-86
2022/04/20 08:47:20;;;;;;;2.60;2.10;;;28.00;29.30;;;;;;5056568;28;20499;-87
2022/04/20 08:49:50;;;;;;;2.45;2.25;;;28.00;30.10;;;;;;5060619;28;20116;-88
2022/04/20 08:52:38;;;;;;;3.20;2.42;;;27.90;28.20;;;;;;5050149;28;20385;-88
2022/04/20 08:55:13;;;;;;;3.20;2.47;;;27.80;29.80;;;;;;5057128;28;20086;-87
2022/04/20 08:57:40;;;;;;;2.72;2.20;;;27.90;28.60;;;;;;5064013;28;20404;-88
2022/04/20 09:00:09;;;;;;;2.75;2.10;;;27.90;29.20;;;;;;5053497;28;20029;-87
2022/04/20 09:02:35;;;;;;;3.20;2.33;;;27.80;27.60;;;;;;5057839;28;20036;-90
2022/04/20 09:05:03;;;;;;;2.63;2.42;;;27.90;28.00;;;;;;5066920;28;20029;-89
2022/04/20 09:07:31;;;;;;;2.88;2.00;;;27.70;26.80;;;;;;5058628;28;20032;-89
2022/04/20 09:09:57;;;;;;;3.63;1.92;;;28.00;28.10;;;;;;5066886;28;20063;-87
2022/04/20 09:12:22;;;;;;;4.53;2.35;;;28.40;28.70;;;;;;5059202;28;20056;-88
2022/04/20 09:14:50;;;;;;;4.47;1.95;;;28.50;27.10;;;;;;5064153;28;20068;-87
2022/04/20 09:17:18;;;;;;;2.00;1.90;;;28.10;25.90;;;;;;5045816;28;20029;-87
2022/04/20 09:19:49;;;;;;;2.38;1.88;;;28.20;27.50;;;;;;5059725;28;20522;-89
2022/04/20 09:22:19;;;;;;;2.50;2.15;;;28.40;28.20;;;;;;5054323;28;20043;-89
2022/04/20 09:24:58;;;;;;;3.80;2.70;;;28.30;27.90;;;;;;5066566;28;20082;-86
2022/04/20 09:27:27;;;;;;;2.95;2.72;;;26.60;26.50;;;;;;5065691;28;20033;-87
2022/04/20 09:29:57;;;;;;;2.83;2.38;;;25.50;28.50;;;;;;5061178;28;20044;-85
2022/04/20 09:32:37;;;;;;;3.58;2.83;;;25.40;28.80;;;;;;5058069;28;20029;-86
2022/04/20 09:35:10;;;;;;;2.67;2.47;;;25.10;29.40;;;;;;5056917;28;20033;-87
2022/04/20 09:37:36;;;;;;;3.35;2.60;;;23.40;29.50;;;;;;5057627;28;20028;-87
2022/04/20 09:40:11;;;;;;;2.92;2.63;;;21.90;31.60;;;;;;5062212;28;20037;-88
2022/04/20 09:42:38;;;;;;;5.78;3.30;;;20.40;31.90;;;;;;5056154;28;20044;-87
2022/04/20 09:45:06;;;;;;;6.20;2.97;;;19.50;35.30;;;;;;5063195;28;20041;-88
2022/04/20 09:50:29;;;;;;;3.30;2.88;;;20.00;35.50;;;;;;5057602;28;20564;-88
2022/04/20 09:52:59;;;;;;;3.10;2.80;;;20.90;38.20;;;;;;5079536;28;20090;-88
2022/04/20 09:55:33;;;;;;;3.28;2.90;;;21.50;34.10;;;;;;5076012;28;20081;-87
2022/04/20 09:58:10;;;;;;;3.05;2.53;;;22.00;36.60;;;;;;5076197;28;20082;-88
2022/04/20 10:00:54;;;;;;;3.05;2.85;;;22.40;33.10;;;;;;5060153;28;20021;-87
2022/04/20 10:03:31;;;;;;;4.38;3.20;;;21.30;33.60;;;;;;5056085;28;20017;-88
2022/04/20 10:05:59;;;;;;;3.15;2.85;;;20.20;37.00;;;;;;5065676;28;20071;-87
2022/04/20 10:08:25;;;;;;;2.97;2.60;;;20.70;36.80;;;;;;5061656;28;20591;-88
2022/04/20 10:10:52;;;;;;;5.13;3.53;;;21.40;36.20;;;;;;5064699;28;20029;-87
2022/04/20 10:13:19;;;;;;;4.65;2.63;;;21.70;33.90;;;;;;5059977;28;20074;-87
2022/04/20 10:16:05;;;;;;;2.60;2.40;;;21.10;36.00;;;;;;5061954;28;20021;-86
2022/04/20 10:18:34;;;;;;;3.00;2.80;;;20.50;37.60;;;;;;5061089;28;20409;-86
2022/04/20 10:21:01;;;;;;;3.28;2.00;;;18.80;36.60;;;;;;5059522;28;20066;-87
2022/04/20 10:23:29;;;;;;;7.38;2.58;;;18.40;40.20;;;;;;5058336;28;20025;-89
2022/04/20 10:25:56;;;;;;;6.53;2.58;;;19.30;38.70;;;;;;5063233;28;20027;-87
2022/04/20 10:28:46;;;;;;;2.67;2.47;;;20.00;36.00;;;;;;5055841;28;20024;-87
2022/04/20 10:31:29;;;;;;;2.80;2.60;;;19.40;36.80;;;;;;5057095;28;20064;-86
2022/04/20 10:33:56;;;;;;;2.65;2.40;;;19.80;36.30;;;;;;5063176;28;20525;-87
2022/04/20 10:36:33;;;;;;;2.60;2.35;;;21.00;37.20;;;;;;5055131;28;20025;-88
2022/04/20 10:39:22;;;;;;;12.55;2.53;;;21.20;34.90;;;;;;5064935;28;20040;-87
2022/04/20 10:42:14;;;;;;;3.30;2.50;;;22.20;35.70;;;;;;5060952;28;20139;-87
2022/04/20 10:45:08;;;;;;;13.65;3.38;;;22.20;33.30;;;;;;5059844;28;20041;-86
2022/04/20 10:47:39;;;;;;;5.07;2.45;;;20.00;33.70;;;;;;5059551;28;20086;-87
2022/04/20 10:50:18;;;;;;;;;;;20.40;37.50;;;;;;5059802;28;20119;-86
2022/04/20 10:52:48;;;;;;;3.67;2.45;;;20.20;36.50;;;;;;5070678;28;20007;-87
2022/04/20 10:55:14;;;;;;;11.60;3.22;;;21.20;37.50;;;;;;5062615;28;20035;-87
2022/04/20 10:57:41;;;;;;;2.47;2.28;;;21.40;37.10;;;;;;5058820;28;20036;-87
2022/04/20 11:00:26;;;;;;;3.75;2.42;;;21.80;36.90;;;;;;5058951;28;20416;-87
2022/04/20 11:03:01;;;;;;;4.13;2.30;;;22.50;36.10;;;;;;5059194;28;20017;-88
2022/04/20 11:05:27;;;;;;;4.82;2.58;;;21.70;34.00;;;;;;5046849;28;20037;-86
2022/04/20 11:08:12;;;;;;;3.00;2.50;;;20.60;36.10;;;;;;5063167;28;20025;-88
2022/04/20 11:10:42;;;;;;;6.40;3.08;;;20.10;38.60;;;;;;5057566;28;20085;-86
2022/04/20 11:19:05;;;;;;;3.63;2.80;;;18.50;40.10;;;;;;5055113;28;20511;-87
2022/04/20 11:21:31;;;;;;;2.67;2.45;;;18.10;41.10;;;;;;5061666;28;20077;-87
2022/04/20 11:24:11;;;;;;;2.70;2.50;;;18.30;44.50;;;;;;5065010;28;20053;-87
2022/04/20 11:26:38;;;;;;;3.83;2.50;;;19.10;42.60;;;;;;5062884;28;20025;-86
2022/04/20 11:29:17;;;;;;;3.83;2.47;;;18.90;40.70;;;;;;5063369;28;20578;-87
2022/04/20 11:31:48;;;;;;;2.78;1.80;;;17.60;40.40;;;;;;5062027;28;20027;-89
2022/04/20 11:34:16;;;;;;;;;;;17.80;45.60;;;;;;5056916;28;20021;-89
2022/04/20 11:36:49;;;;;;;2.50;2.30;;;18.60;44.60;;;;;;5060494;28;19996;-88
2022/04/20 11:39:17;;;;;;;3.17;2.03;;;19.50;43.50;;;;;;5058659;28;20036;-87
2022/04/20 11:41:47;;;;;;;2.70;2.20;;;20.10;41.00;;;;;;5060709;28;20021;-88
2022/04/20 11:44:44;;;;;;;6.20;2.53;;;20.10;40.20;;;;;;5060400;28;20068;-86
2022/04/20 11:47:11;;;;;;;80.57;5.45;;;18.90;40.60;;;;;;5053353;28;20082;-87
2022/04/20 11:49:42;;;;;;;11.35;2.45;;;17.70;43.10;;;;;;5063153;28;20056;-87
2022/04/20 11:52:15;;;;;;;6.95;2.00;;;17.30;43.10;;;;;;5069191;28;20127;-87
2022/04/20 11:54:45;;;;;;;4.40;2.42;;;17.50;43.00;;;;;;5056951;28;20108;-87
2022/04/20 11:57:11;;;;;;;2.47;2.10;;;17.70;44.90;;;;;;5060380;28;20032;-88
2022/04/20 11:59:44;;;;;;;3.10;2.00;;;18.40;45.00;;;;;;5059157;28;20024;-87
2022/04/20 12:02:12;;;;;;;3.50;1.83;;;19.00;44.80;;;;;;5062583;28;20017;-89
2022/04/20 12:04:39;;;;;;;3.03;1.92;;;19.40;42.60;;;;;;5058922;28;20021;-90
2022/04/20 12:07:05;;;;;;;2.40;2.17;;;20.00;42.90;;;;;;5063755;28;20028;-86
2022/04/20 12:09:33;;;;;;;2.28;1.70;;;20.50;40.40;;;;;;5058789;28;20052;-88
2022/04/20 12:12:05;;;;;;;5.55;1.80;;;20.80;41.30;;;;;;5043932;28;20037;-87
2022/04/20 12:14:35;;;;;;;2.00;1.83;;;21.10;40.80;;;;;;5060612;28;20033;-88
2022/04/20 12:17:05;;;;;;;2.70;1.85;;;21.60;40.80;;;;;;5060147;28;20086;-86
2022/04/20 12:19:32;;;;;;;3.00;1.80;;;21.90;37.70;;;;;;5052337;28;20055;-88
2022/04/20 12:22:05;;;;;;;3.83;1.95;;;21.40;36.80;;;;;;5060315;28;20469;-86
2022/04/20 12:24:30;;;;;;;1.88;1.77;;;20.80;37.80;;;;;;5058810;28;20033;-87
2022/04/20 12:26:58;;;;;;;3.22;2.92;;;19.70;40.70;;;;;;5077066;28;20029;-86
2022/04/20 12:29:32;;;;;;;3.00;2.38;;;19.20;42.00;;;;;;5062010;28;20048;-89
2022/04/20 12:31:57;;;;;;;2.75;2.35;;;19.50;42.70;;;;;;5068216;28;20043;-90
2022/04/20 12:34:28;;;;;;;4.38;2.30;;;20.20;44.20;;;;;;5043850;28;20112;-88
2022/04/20 12:37:07;;;;;;;6.07;2.37;;;20.10;39.80;;;;;;5058297;28;20029;-87
2022/04/20 12:39:36;;;;;;;3.63;2.35;;;20.10;42.40;;;;;;5058387;28;20469;-86
2022/04/20 12:42:11;;;;;;;2.83;2.50;;;19.30;42.30;;;;;;5061300;28;20052;-86
2022/04/20 12:44:40;;;;;;;3.85;2.30;;;18.90;42.40;;;;;;5059100;28;20029;-88
2022/04/20 12:47:08;;;;;;;4.63;2.25;;;18.60;43.10;;;;;;5061537;28;20071;-86
2022/04/20 12:49:39;;;;;;;2.92;2.00;;;18.50;43.80;;;;;;5058200;28;20040;-86
2022/04/20 12:52:06;;;;;;;1.73;1.63;;;18.30;45.00;;;;;;5058682;28;20021;-87
2022/04/20 12:54:32;;;;;;;2.58;2.35;;;18.90;45.10;;;;;;5062341;28;20028;-87
2022/04/20 13:02:26;;;;;;;3.67;2.10;;;19.30;41.50;;;;;;5060737;28;20028;-85
2022/04/20 13:04:52;;;;;;;4.82;2.53;;;19.40;42.90;;;;;;5054099;28;20404;-86
2022/04/20 13:07:17;;;;;;;3.15;2.20;;;19.20;41.80;;;;;;5055765;28;20520;-86
2022/04/20 13:09:43;;;;;;;2.70;1.90;;;19.10;44.80;;;;;;5064053;28;20066;-89
2022/04/20 13:12:09;;;;;;;5.82;2.00;;;18.80;45.20;;;;;;5066193;28;20035;-88
2022/04/20 13:14:36;;;;;;;2.72;2.05;;;19.00;44.10;;;;;;5067063;28;20029;-89
2022/04/20 13:17:02;;;;;;;4.63;2.20;;;18.60;44.60;;;;;;5065688;28;20029;-87
2022/04/20 13:19:27;;;;;;;2.05;1.85;;;19.00;43.50;;;;;;5060069;28;20017;-84
2022/04/20 13:21:53;;;;;;;3.75;2.17;;;18.90;45.10;;;;;;5078154;28;20025;-85
2022/04/20 13:29:47;;;;;;;3.75;2.20;;;18.90;44.00;;;;;;5061496;28;20037;-87